sensor_id;sensor_type;location;lat;lon;timestamp;temperature;humidity
4390;DHT22;2209;48.982;8.406;2023-04-19T00:01:59;13.70;99.90
4390;DHT22;2209;48.982;8.406;2023-04-19T00:04:21;13.80;99.90
4390;DHT22;2209;48.982;8.406;2023-04-19T00:06:43;13.70;99.90
4390;DHT22;2209;48.982;8.406;2023-04-19T00:09:07;13.70;99.90
4390;DHT22;2209;48.982;8.406;2023-04-19T00:11:29;13.70;99.90
4390;DHT22;2209;48.982;8.406;2023-04-19T00:13:51;13.70;99.90
4390;DHT22;2209;48.982;8.406;2023-04-19T00:16:13;13.70;99.90
4390;DHT22;2209;48.982;8.406;2023-04-19T00:18:35;13.70;99.90
4390;DHT22;2209;48.982;8.406;2023-04-19T00:20:58;13.70;99.90
4390;DHT22;2209;48.982;8.406;2023-04-19T00:23:20;13.70;99.90
4390;DHT22;2209;48.982;8.406;2023-04-19T00:25:44;13.70;99.90
4390;DHT22;2209;48.982;8.406;2023-04-19T00:28:06;13.70;99.90
4390;DHT22;2209;48.982;8.406;2023-04-19T00:30:28;13.70;99.90
4390;DHT22;2209;48.982;8.406;2023-04-19T00:32:50;13.70;99.90
4390;DHT22;2209;48.982;8.406;2023-04-19T00:35:12;13.70;99.90
4390;DHT22;2209;48.982;8.406;2023-04-19T00:37:35;13.70;99.90
4390;DHT22;2209;48.982;8.406;2023-04-19T00:39:57;13.70;99.90
4390;DHT22;2209;48.982;8.406;2023-04-19T00:42:20;13.70;99.90
4390;DHT22;2209;48.982;8.406;2023-04-19T00:44:43;13.70;99.90
4390;DHT22;2209;48.982;8.406;2023-04-19T00:47:05;13.70;99.90
4390;DHT22;2209;48.982;8.406;2023-04-19T00:49:27;13.70;99.90
4390;DHT22;2209;48.982;8.406;2023-04-19T00:51:50;13.70;99.90
4390;DHT22;2209;48.982;8.406;2023-04-19T00:54:12;13.70;99.90
4390;DHT22;2209;48.982;8.406;2023-04-19T00:56:35;13.60;99.90
4390;DHT22;2209;48.982;8.406;2023-04-19T00:58:58;13.60;99.90
4390;DHT22;2209;48.982;8.406;2023-04-19T01:01:20;13.60;99.90
4390;DHT22;2209;48.982;8.406;2023-04-19T01:03:44;13.60;99.90
4390;DHT22;2209;48.982;8.406;2023-04-19T01:06:06;13.60;99.90
4390;DHT22;2209;48.982;8.406;2023-04-19T01:08:28;13.60;99.90
4390;DHT22;2209;48.982;8.406;2023-04-19T01:10:50;13.60;99.90
4390;DHT22;2209;48.982;8.406;2023-04-19T01:13:13;13.60;99.90
4390;DHT22;2209;48.982;8.406;2023-04-19T01:15:36;13.60;99.90
4390;DHT22;2209;48.982;8.406;2023-04-19T01:17:58;13.60;99.90
4390;DHT22;2209;48.982;8.406;2023-04-19T01:20:22;13.60;99.90
4390;DHT22;2209;48.982;8.406;2023-04-19T01:22:45;13.60;99.90
4390;DHT22;2209;48.982;8.406;2023-04-19T01:25:07;13.50;99.90
4390;DHT22;2209;48.982;8.406;2023-04-19T01:27:30;13.50;99.90
4390;DHT22;2209;48.982;8.406;2023-04-19T01:29:52;13.50;99.90
4390;DHT22;2209;48.982;8.406;2023-04-19T01:32:14;13.50;99.90
4390;DHT22;2209;48.982;8.406;2023-04-19T01:34:37;13.50;99.90
4390;DHT22;2209;48.982;8.406;2023-04-19T01:36:59;13.50;99.90
4390;DHT22;2209;48.982;8.406;2023-04-19T01:39:24;13.50;99.90
4390;DHT22;2209;48.982;8.406;2023-04-19T01:41:47;13.50;99.90
4390;DHT22;2209;48.982;8.406;2023-04-19T01:44:09;13.50;99.90
4390;DHT22;2209;48.982;8.406;2023-04-19T01:46:31;13.40;99.90
4390;DHT22;2209;48.982;8.406;2023-04-19T01:48:53;13.40;99.90
4390;DHT22;2209;48.982;8.406;2023-04-19T01:51:15;13.40;99.90
4390;DHT22;2209;48.982;8.406;2023-04-19T01:53:37;13.40;99.90
4390;DHT22;2209;48.982;8.406;2023-04-19T01:56:01;13.40;99.90
4390;DHT22;2209;48.982;8.406;2023-04-19T01:58:23;13.40;99.90
4390;DHT22;2209;48.982;8.406;2023-04-19T02:00:45;13.40;99.90
4390;DHT22;2209;48.982;8.406;2023-04-19T02:03:07;13.40;99.90
4390;DHT22;2209;48.982;8.406;2023-04-19T02:08:47;13.40;99.90
4390;DHT22;2209;48.982;8.406;2023-04-19T02:11:12;13.40;99.90
4390;DHT22;2209;48.982;8.406;2023-04-19T02:13:35;13.30;99.90
4390;DHT22;2209;48.982;8.406;2023-04-19T02:15:58;13.30;99.90
4390;DHT22;2209;48.982;8.406;2023-04-19T02:18:22;13.30;99.90
4390;DHT22;2209;48.982;8.406;2023-04-19T02:20:46;13.30;99.90
4390;DHT22;2209;48.982;8.406;2023-04-19T02:23:09;13.30;99.90
4390;DHT22;2209;48.982;8.406;2023-04-19T02:25:31;13.30;99.90
4390;DHT22;2209;48.982;8.406;2023-04-19T02:27:55;13.30;99.90
4390;DHT22;2209;48.982;8.406;2023-04-19T02:30:18;13.30;99.90
4390;DHT22;2209;48.982;8.406;2023-04-19T02:32:41;13.30;99.90
4390;DHT22;2209;48.982;8.406;2023-04-19T02:35:04;13.20;99.90
4390;DHT22;2209;48.982;8.406;2023-04-19T02:37:27;13.30;99.90
4390;DHT22;2209;48.982;8.406;2023-04-19T02:39:49;13.30;99.90
4390;DHT22;2209;48.982;8.406;2023-04-19T02:42:11;13.30;99.90
4390;DHT22;2209;48.982;8.406;2023-04-19T02:44:34;13.20;99.90
4390;DHT22;2209;48.982;8.406;2023-04-19T02:46:56;13.20;99.90
4390;DHT22;2209;48.982;8.406;2023-04-19T02:49:19;13.30;99.90
4390;DHT22;2209;48.982;8.406;2023-04-19T02:51:41;13.30;99.90
4390;DHT22;2209;48.982;8.406;2023-04-19T02:54:03;13.30;99.90
4390;DHT22;2209;48.982;8.406;2023-04-19T02:56:26;13.30;99.90
4390;DHT22;2209;48.982;8.406;2023-04-19T02:58:48;13.30;99.90
4390;DHT22;2209;48.982;8.406;2023-04-19T03:01:11;13.20;99.90
4390;DHT22;2209;48.982;8.406;2023-04-19T03:03:33;13.20;99.90
4390;DHT22;2209;48.982;8.406;2023-04-19T03:05:55;13.20;99.90
4390;DHT22;2209;48.982;8.406;2023-04-19T03:08:18;13.20;99.90
4390;DHT22;2209;48.982;8.406;2023-04-19T03:10:40;13.20;99.90
4390;DHT22;2209;48.982;8.406;2023-04-19T03:13:02;13.20;99.90
4390;DHT22;2209;48.982;8.406;2023-04-19T03:15:24;13.20;99.90
4390;DHT22;2209;48.982;8.406;2023-04-19T03:17:47;13.20;99.90
4390;DHT22;2209;48.982;8.406;2023-04-19T03:20:10;13.10;99.90
4390;DHT22;2209;48.982;8.406;2023-04-19T03:22:32;13.10;99.90
4390;DHT22;2209;48.982;8.406;2023-04-19T03:24:54;13.20;99.90
4390;DHT22;2209;48.982;8.406;2023-04-19T03:27:17;13.10;99.90
4390;DHT22;2209;48.982;8.406;2023-04-19T03:29:39;13.10;99.90
4390;DHT22;2209;48.982;8.406;2023-04-19T03:32:01;13.20;99.90
4390;DHT22;2209;48.982;8.406;2023-04-19T03:34:24;13.20;99.90
4390;DHT22;2209;48.982;8.406;2023-04-19T03:36:46;13.20;99.90
4390;DHT22;2209;48.982;8.406;2023-04-19T03:39:08;13.20;99.90
4390;DHT22;2209;48.982;8.406;2023-04-19T03:41:30;13.20;99.90
4390;DHT22;2209;48.982;8.406;2023-04-19T03:43:52;13.20;99.90
4390;DHT22;2209;48.982;8.406;2023-04-19T03:46:14;13.10;99.90
4390;DHT22;2209;48.982;8.406;2023-04-19T03:48:36;13.10;99.90
4390;DHT22;2209;48.982;8.406;2023-04-19T03:51:00;13.10;99.90
4390;DHT22;2209;48.982;8.406;2023-04-19T03:53:22;13.10;99.90
4390;DHT22;2209;48.982;8.406;2023-04-19T03:55:44;13.10;99.90
4390;DHT22;2209;48.982;8.406;2023-04-19T03:58:06;13.10;99.90
4390;DHT22;2209;48.982;8.406;2023-04-19T04:00:29;13.10;99.90
4390;DHT22;2209;48.982;8.406;2023-04-19T04:02:51;13.10;99.90
4390;DHT22;2209;48.982;8.406;2023-04-19T04:05:13;13.10;99.90
4390;DHT22;2209;48.982;8.406;2023-04-19T04:07:37;13.10;99.90
4390;DHT22;2209;48.982;8.406;2023-04-19T04:09:59;13.10;99.90
4390;DHT22;2209;48.982;8.406;2023-04-19T04:12:21;13.10;99.90
4390;DHT22;2209;48.982;8.406;2023-04-19T04:14:43;13.00;99.90
4390;DHT22;2209;48.982;8.406;2023-04-19T04:17:05;13.00;99.90
4390;DHT22;2209;48.982;8.406;2023-04-19T04:19:27;13.00;99.90
4390;DHT22;2209;48.982;8.406;2023-04-19T04:21:49;13.10;99.90
4390;DHT22;2209;48.982;8.406;2023-04-19T04:24:12;13.00;99.90
4390;DHT22;2209;48.982;8.406;2023-04-19T04:26:34;13.00;99.90
4390;DHT22;2209;48.982;8.406;2023-04-19T04:28:59;13.00;99.90
4390;DHT22;2209;48.982;8.406;2023-04-19T04:31:21;13.00;99.90
4390;DHT22;2209;48.982;8.406;2023-04-19T04:33:43;13.00;99.90
4390;DHT22;2209;48.982;8.406;2023-04-19T04:36:06;13.00;99.90
4390;DHT22;2209;48.982;8.406;2023-04-19T04:38:31;13.00;99.90
4390;DHT22;2209;48.982;8.406;2023-04-19T04:40:55;13.00;99.90
4390;DHT22;2209;48.982;8.406;2023-04-19T04:43:17;13.00;99.90
4390;DHT22;2209;48.982;8.406;2023-04-19T04:45:40;13.00;99.90
4390;DHT22;2209;48.982;8.406;2023-04-19T04:48:04;13.00;99.90
4390;DHT22;2209;48.982;8.406;2023-04-19T04:50:26;13.00;99.90
4390;DHT22;2209;48.982;8.406;2023-04-19T04:52:48;13.00;99.90
4390;DHT22;2209;48.982;8.406;2023-04-19T04:55:11;13.00;99.90
4390;DHT22;2209;48.982;8.406;2023-04-19T04:57:35;12.90;99.90
4390;DHT22;2209;48.982;8.406;2023-04-19T04:59:57;13.00;99.90
4390;DHT22;2209;48.982;8.406;2023-04-19T05:02:19;12.90;99.90
4390;DHT22;2209;48.982;8.406;2023-04-19T05:04:42;12.90;99.90
4390;DHT22;2209;48.982;8.406;2023-04-19T05:07:04;12.90;99.90
4390;DHT22;2209;48.982;8.406;2023-04-19T05:09:26;13.00;99.90
4390;DHT22;2209;48.982;8.406;2023-04-19T05:11:48;12.90;99.90
4390;DHT22;2209;48.982;8.406;2023-04-19T05:14:11;12.90;99.90
4390;DHT22;2209;48.982;8.406;2023-04-19T05:16:33;12.90;99.90
4390;DHT22;2209;48.982;8.406;2023-04-19T05:18:55;12.90;99.90
4390;DHT22;2209;48.982;8.406;2023-04-19T05:21:18;12.90;99.90
4390;DHT22;2209;48.982;8.406;2023-04-19T05:23:40;12.90;99.90
4390;DHT22;2209;48.982;8.406;2023-04-19T05:26:02;12.90;99.90
4390;DHT22;2209;48.982;8.406;2023-04-19T05:28:24;12.90;99.90
4390;DHT22;2209;48.982;8.406;2023-04-19T05:30:48;12.90;99.90
4390;DHT22;2209;48.982;8.406;2023-04-19T05:33:10;12.90;99.90
4390;DHT22;2209;48.982;8.406;2023-04-19T05:35:32;12.90;99.90
4390;DHT22;2209;48.982;8.406;2023-04-19T05:37:54;12.90;99.90
4390;DHT22;2209;48.982;8.406;2023-04-19T05:40:16;12.90;99.90
4390;DHT22;2209;48.982;8.406;2023-04-19T05:42:39;12.90;99.90
4390;DHT22;2209;48.982;8.406;2023-04-19T05:45:01;12.90;99.90
4390;DHT22;2209;48.982;8.406;2023-04-19T05:47:24;12.90;99.90
4390;DHT22;2209;48.982;8.406;2023-04-19T05:49:46;12.90;99.90
4390;DHT22;2209;48.982;8.406;2023-04-19T05:52:08;12.90;99.90
4390;DHT22;2209;48.982;8.406;2023-04-19T05:54:31;12.90;99.90
4390;DHT22;2209;48.982;8.406;2023-04-19T05:56:55;12.90;99.90
4390;DHT22;2209;48.982;8.406;2023-04-19T05:59:17;12.90;99.90
4390;DHT22;2209;48.982;8.406;2023-04-19T06:01:39;12.90;99.90
4390;DHT22;2209;48.982;8.406;2023-04-19T06:04:03;12.90;99.90
4390;DHT22;2209;48.982;8.406;2023-04-19T06:06:25;12.90;99.90
4390;DHT22;2209;48.982;8.406;2023-04-19T06:08:47;12.90;99.90
4390;DHT22;2209;48.982;8.406;2023-04-19T06:11:09;12.90;99.90
4390;DHT22;2209;48.982;8.406;2023-04-19T06:13:31;12.80;99.90
4390;DHT22;2209;48.982;8.406;2023-04-19T06:15:53;12.80;99.90
4390;DHT22;2209;48.982;8.406;2023-04-19T06:18:15;12.80;99.90
4390;DHT22;2209;48.982;8.406;2023-04-19T06:20:39;12.90;99.90
4390;DHT22;2209;48.982;8.406;2023-04-19T06:23:01;12.90;99.90
4390;DHT22;2209;48.982;8.406;2023-04-19T06:25:23;12.90;99.90
4390;DHT22;2209;48.982;8.406;2023-04-19T06:27:46;12.90;99.90
4390;DHT22;2209;48.982;8.406;2023-04-19T06:30:08;12.90;99.90
4390;DHT22;2209;48.982;8.406;2023-04-19T06:32:30;12.80;99.90
4390;DHT22;2209;48.982;8.406;2023-04-19T06:34:52;12.80;99.90
4390;DHT22;2209;48.982;8.406;2023-04-19T06:37:16;12.80;99.90
4390;DHT22;2209;48.982;8.406;2023-04-19T06:39:38;12.90;99.90
4390;DHT22;2209;48.982;8.406;2023-04-19T06:42:00;12.90;99.90
4390;DHT22;2209;48.982;8.406;2023-04-19T06:44:22;12.90;99.90
4390;DHT22;2209;48.982;8.406;2023-04-19T06:46:45;12.90;99.90
4390;DHT22;2209;48.982;8.406;2023-04-19T06:49:07;12.90;99.90
4390;DHT22;2209;48.982;8.406;2023-04-19T06:51:29;12.90;99.90
4390;DHT22;2209;48.982;8.406;2023-04-19T06:53:53;12.80;99.90
4390;DHT22;2209;48.982;8.406;2023-04-19T06:56:15;12.90;99.90
4390;DHT22;2209;48.982;8.406;2023-04-19T06:58:37;12.90;99.90
4390;DHT22;2209;48.982;8.406;2023-04-19T07:00:59;12.90;99.90
4390;DHT22;2209;48.982;8.406;2023-04-19T07:03:21;12.90;99.90
4390;DHT22;2209;48.982;8.406;2023-04-19T07:05:44;12.90;99.90
4390;DHT22;2209;48.982;8.406;2023-04-19T07:08:06;12.90;99.90
4390;DHT22;2209;48.982;8.406;2023-04-19T07:10:29;12.90;99.90
4390;DHT22;2209;48.982;8.406;2023-04-19T07:12:51;12.90;99.90
4390;DHT22;2209;48.982;8.406;2023-04-19T07:15:13;12.80;99.90
4390;DHT22;2209;48.982;8.406;2023-04-19T07:17:36;12.80;99.90
4390;DHT22;2209;48.982;8.406;2023-04-19T07:19:58;12.80;99.90
4390;DHT22;2209;48.982;8.406;2023-04-19T07:22:20;12.80;99.90
4390;DHT22;2209;48.982;8.406;2023-04-19T07:24:43;12.80;99.90
4390;DHT22;2209;48.982;8.406;2023-04-19T07:27:06;12.80;99.90
4390;DHT22;2209;48.982;8.406;2023-04-19T07:29:28;12.80;99.90
4390;DHT22;2209;48.982;8.406;2023-04-19T07:31:50;12.80;99.90
4390;DHT22;2209;48.982;8.406;2023-04-19T07:34:15;12.80;99.90
4390;DHT22;2209;48.982;8.406;2023-04-19T07:36:37;12.80;99.90
4390;DHT22;2209;48.982;8.406;2023-04-19T07:38:59;12.80;99.90
4390;DHT22;2209;48.982;8.406;2023-04-19T07:41:21;12.80;99.90
4390;DHT22;2209;48.982;8.406;2023-04-19T07:43:44;12.80;99.90
4390;DHT22;2209;48.982;8.406;2023-04-19T07:46:08;12.80;99.90
4390;DHT22;2209;48.982;8.406;2023-04-19T07:48:31;12.80;99.90
4390;DHT22;2209;48.982;8.406;2023-04-19T07:50:53;12.80;99.90
4390;DHT22;2209;48.982;8.406;2023-04-19T07:53:15;12.80;99.90
4390;DHT22;2209;48.982;8.406;2023-04-19T07:55:38;12.80;99.90
4390;DHT22;2209;48.982;8.406;2023-04-19T07:58:00;12.80;99.90
4390;DHT22;2209;48.982;8.406;2023-04-19T08:00:23;12.80;99.90
4390;DHT22;2209;48.982;8.406;2023-04-19T08:02:47;12.90;99.90
4390;DHT22;2209;48.982;8.406;2023-04-19T08:05:09;12.90;99.90
4390;DHT22;2209;48.982;8.406;2023-04-19T08:07:31;12.90;99.90
4390;DHT22;2209;48.982;8.406;2023-04-19T08:09:53;12.90;99.90
4390;DHT22;2209;48.982;8.406;2023-04-19T08:12:15;12.90;99.90
4390;DHT22;2209;48.982;8.406;2023-04-19T08:14:38;12.90;99.90
4390;DHT22;2209;48.982;8.406;2023-04-19T08:17:03;12.90;99.90
4390;DHT22;2209;48.982;8.406;2023-04-19T08:19:25;12.90;99.90
4390;DHT22;2209;48.982;8.406;2023-04-19T08:21:47;12.90;99.90
4390;DHT22;2209;48.982;8.406;2023-04-19T08:24:09;12.90;99.90
4390;DHT22;2209;48.982;8.406;2023-04-19T08:26:31;12.90;99.90
4390;DHT22;2209;48.982;8.406;2023-04-19T08:28:53;12.90;99.90
4390;DHT22;2209;48.982;8.406;2023-04-19T08:31:15;12.90;99.90
4390;DHT22;2209;48.982;8.406;2023-04-19T08:33:40;12.90;99.90
4390;DHT22;2209;48.982;8.406;2023-04-19T08:36:03;13.00;99.90
4390;DHT22;2209;48.982;8.406;2023-04-19T08:38:25;13.00;99.90
4390;DHT22;2209;48.982;8.406;2023-04-19T08:40:52;13.00;99.90
4390;DHT22;2209;48.982;8.406;2023-04-19T08:43:16;13.00;99.90
4390;DHT22;2209;48.982;8.406;2023-04-19T08:45:38;13.00;99.90
4390;DHT22;2209;48.982;8.406;2023-04-19T08:48:01;13.00;99.90
4390;DHT22;2209;48.982;8.406;2023-04-19T08:50:25;13.00;99.90
4390;DHT22;2209;48.982;8.406;2023-04-19T08:52:47;13.00;99.90
4390;DHT22;2209;48.982;8.406;2023-04-19T08:55:09;13.00;99.90
4390;DHT22;2209;48.982;8.406;2023-04-19T08:57:32;13.00;99.90
4390;DHT22;2209;48.982;8.406;2023-04-19T08:59:54;13.00;99.90
4390;DHT22;2209;48.982;8.406;2023-04-19T09:02:17;13.00;99.90
4390;DHT22;2209;48.982;8.406;2023-04-19T09:04:40;13.00;99.90
4390;DHT22;2209;48.982;8.406;2023-04-19T09:07:03;13.00;99.90
4390;DHT22;2209;48.982;8.406;2023-04-19T09:09:27;13.10;99.90
4390;DHT22;2209;48.982;8.406;2023-04-19T09:11:49;13.10;99.90
4390;DHT22;2209;48.982;8.406;2023-04-19T09:14:13;13.10;99.90
4390;DHT22;2209;48.982;8.406;2023-04-19T09:16:36;13.20;99.90
4390;DHT22;2209;48.982;8.406;2023-04-19T09:18:59;13.20;99.90
4390;DHT22;2209;48.982;8.406;2023-04-19T09:21:27;13.20;99.90
4390;DHT22;2209;48.982;8.406;2023-04-19T09:23:50;13.20;99.90
4390;DHT22;2209;48.982;8.406;2023-04-19T09:26:12;13.20;99.90
4390;DHT22;2209;48.982;8.406;2023-04-19T09:28:35;13.20;99.90
4390;DHT22;2209;48.982;8.406;2023-04-19T09:30:57;13.20;99.90
4390;DHT22;2209;48.982;8.406;2023-04-19T09:33:31;13.20;99.90
4390;DHT22;2209;48.982;8.406;2023-04-19T09:35:53;13.20;99.90
4390;DHT22;2209;48.982;8.406;2023-04-19T09:38:15;13.20;99.90
4390;DHT22;2209;48.982;8.406;2023-04-19T09:40:39;13.20;99.90
4390;DHT22;2209;48.982;8.406;2023-04-19T09:43:02;13.20;99.90
4390;DHT22;2209;48.982;8.406;2023-04-19T09:45:25;13.30;99.90
4390;DHT22;2209;48.982;8.406;2023-04-19T09:47:59;13.30;99.90
4390;DHT22;2209;48.982;8.406;2023-04-19T09:50:22;13.30;99.90
4390;DHT22;2209;48.982;8.406;2023-04-19T09:52:45;13.30;99.90
4390;DHT22;2209;48.982;8.406;2023-04-19T09:55:09;13.30;99.90
4390;DHT22;2209;48.982;8.406;2023-04-19T09:57:33;13.30;99.90
4390;DHT22;2209;48.982;8.406;2023-04-19T09:59:57;13.30;99.90
4390;DHT22;2209;48.982;8.406;2023-04-19T10:02:19;13.30;99.90
4390;DHT22;2209;48.982;8.406;2023-04-19T10:04:43;13.30;99.90
4390;DHT22;2209;48.982;8.406;2023-04-19T10:07:06;13.30;99.90
4390;DHT22;2209;48.982;8.406;2023-04-19T10:09:28;13.30;99.90
4390;DHT22;2209;48.982;8.406;2023-04-19T10:11:51;13.30;99.90
4390;DHT22;2209;48.982;8.406;2023-04-19T10:14:17;13.30;99.90
4390;DHT22;2209;48.982;8.406;2023-04-19T10:16:42;13.30;99.90
4390;DHT22;2209;48.982;8.406;2023-04-19T10:19:07;13.40;99.90
4390;DHT22;2209;48.982;8.406;2023-04-19T10:21:29;13.40;99.90
4390;DHT22;2209;48.982;8.406;2023-04-19T10:23:52;13.40;99.90
4390;DHT22;2209;48.982;8.406;2023-04-19T10:26:15;13.50;99.90
4390;DHT22;2209;48.982;8.406;2023-04-19T10:28:37;13.50;99.90
4390;DHT22;2209;48.982;8.406;2023-04-19T10:31:01;13.50;99.90
4390;DHT22;2209;48.982;8.406;2023-04-19T10:33:24;13.50;99.90
4390;DHT22;2209;48.982;8.406;2023-04-19T10:35:47;13.50;99.90
4390;DHT22;2209;48.982;8.406;2023-04-19T10:38:10;13.50;99.90
4390;DHT22;2209;48.982;8.406;2023-04-19T10:40:58;13.50;99.90
4390;DHT22;2209;48.982;8.406;2023-04-19T10:43:26;13.50;99.90
4390;DHT22;2209;48.982;8.406;2023-04-19T10:45:49;13.50;99.90
4390;DHT22;2209;48.982;8.406;2023-04-19T10:48:34;13.50;99.90
4390;DHT22;2209;48.982;8.406;2023-04-19T10:50:58;13.50;99.90
4390;DHT22;2209;48.982;8.406;2023-04-19T10:53:42;13.50;99.90
4390;DHT22;2209;48.982;8.406;2023-04-19T10:56:05;13.50;99.90
4390;DHT22;2209;48.982;8.406;2023-04-19T10:58:27;13.50;99.90
4390;DHT22;2209;48.982;8.406;2023-04-19T11:00:49;13.50;99.90
4390;DHT22;2209;48.982;8.406;2023-04-19T11:06:18;13.50;99.90
4390;DHT22;2209;48.982;8.406;2023-04-19T11:08:47;13.50;99.90
4390;DHT22;2209;48.982;8.406;2023-04-19T11:11:09;13.60;99.90
4390;DHT22;2209;48.982;8.406;2023-04-19T11:13:31;13.60;99.90
4390;DHT22;2209;48.982;8.406;2023-04-19T11:15:57;13.60;99.90
4390;DHT22;2209;48.982;8.406;2023-04-19T11:18:19;13.60;99.90
4390;DHT22;2209;48.982;8.406;2023-04-19T11:20:42;13.60;99.90
4390;DHT22;2209;48.982;8.406;2023-04-19T11:23:15;13.60;99.90
4390;DHT22;2209;48.982;8.406;2023-04-19T11:25:37;13.60;99.90
4390;DHT22;2209;48.982;8.406;2023-04-19T11:27:59;13.60;99.90
4390;DHT22;2209;48.982;8.406;2023-04-19T11:30:27;13.60;99.90
4390;DHT22;2209;48.982;8.406;2023-04-19T11:32:51;13.60;99.90
4390;DHT22;2209;48.982;8.406;2023-04-19T11:35:14;13.70;99.90
4390;DHT22;2209;48.982;8.406;2023-04-19T11:37:37;13.70;99.90
4390;DHT22;2209;48.982;8.406;2023-04-19T11:40:01;13.70;99.90
4390;DHT22;2209;48.982;8.406;2023-04-19T11:42:24;13.60;99.90
4390;DHT22;2209;48.982;8.406;2023-04-19T11:44:50;13.60;99.90
4390;DHT22;2209;48.982;8.406;2023-04-19T11:47:13;13.70;99.90
4390;DHT22;2209;48.982;8.406;2023-04-19T11:49:35;13.70;99.90
4390;DHT22;2209;48.982;8.406;2023-04-19T11:51:58;13.70;99.90
4390;DHT22;2209;48.982;8.406;2023-04-19T11:54:22;13.70;99.90
4390;DHT22;2209;48.982;8.406;2023-04-19T11:57:00;13.70;99.90
4390;DHT22;2209;48.982;8.406;2023-04-19T11:59:24;13.60;99.90
4390;DHT22;2209;48.982;8.406;2023-04-19T12:05:08;13.60;99.90
4390;DHT22;2209;48.982;8.406;2023-04-19T12:07:31;13.60;99.90
4390;DHT22;2209;48.982;8.406;2023-04-19T12:09:54;13.70;99.90
4390;DHT22;2209;48.982;8.406;2023-04-19T12:12:32;13.70;99.90
4390;DHT22;2209;48.982;8.406;2023-04-19T12:14:55;13.70;99.90
4390;DHT22;2209;48.982;8.406;2023-04-19T12:17:19;13.60;99.90
4390;DHT22;2209;48.982;8.406;2023-04-19T12:19:43;13.60;99.90
4390;DHT22;2209;48.982;8.406;2023-04-19T12:22:11;13.60;99.90
4390;DHT22;2209;48.982;8.406;2023-04-19T12:24:35;13.50;99.90
4390;DHT22;2209;48.982;8.406;2023-04-19T12:27:00;13.50;99.90
4390;DHT22;2209;48.982;8.406;2023-04-19T12:29:25;13.50;99.90
4390;DHT22;2209;48.982;8.406;2023-04-19T12:31:48;13.40;99.90
4390;DHT22;2209;48.982;8.406;2023-04-19T12:34:11;13.40;99.90
4390;DHT22;2209;48.982;8.406;2023-04-19T12:36:34;13.40;99.90
4390;DHT22;2209;48.982;8.406;2023-04-19T12:38:56;13.50;99.90
4390;DHT22;2209;48.982;8.406;2023-04-19T12:41:18;13.40;99.90
4390;DHT22;2209;48.982;8.406;2023-04-19T12:43:40;13.40;99.90
4390;DHT22;2209;48.982;8.406;2023-04-19T12:46:04;13.40;99.90
4390;DHT22;2209;48.982;8.406;2023-04-19T12:48:26;13.50;99.90
4390;DHT22;2209;48.982;8.406;2023-04-19T12:50:48;13.50;99.90
4390;DHT22;2209;48.982;8.406;2023-04-19T12:53:10;13.40;99.90
4390;DHT22;2209;48.982;8.406;2023-04-19T12:55:33;13.40;99.90
4390;DHT22;2209;48.982;8.406;2023-04-19T12:57:55;13.40;99.90
4390;DHT22;2209;48.982;8.406;2023-04-19T13:00:17;13.40;99.90
4390;DHT22;2209;48.982;8.406;2023-04-19T13:02:40;13.40;99.90
4390;DHT22;2209;48.982;8.406;2023-04-19T13:05:03;13.30;99.90
4390;DHT22;2209;48.982;8.406;2023-04-19T13:07:26;13.40;99.90
4390;DHT22;2209;48.982;8.406;2023-04-19T13:09:48;13.40;99.90
4390;DHT22;2209;48.982;8.406;2023-04-19T13:12:10;13.30;99.90
4390;DHT22;2209;48.982;8.406;2023-04-19T13:14:32;13.30;99.90
4390;DHT22;2209;48.982;8.406;2023-04-19T13:16:54;13.30;99.90
4390;DHT22;2209;48.982;8.406;2023-04-19T13:19:18;13.30;99.90
4390;DHT22;2209;48.982;8.406;2023-04-19T13:21:40;13.30;99.90
4390;DHT22;2209;48.982;8.406;2023-04-19T13:24:02;13.40;99.90
4390;DHT22;2209;48.982;8.406;2023-04-19T13:26:24;13.40;99.90
4390;DHT22;2209;48.982;8.406;2023-04-19T13:28:47;13.40;99.90
4390;DHT22;2209;48.982;8.406;2023-04-19T13:31:09;13.40;99.90
4390;DHT22;2209;48.982;8.406;2023-04-19T13:33:31;13.40;99.90
4390;DHT22;2209;48.982;8.406;2023-04-19T13:35:54;13.40;99.90
4390;DHT22;2209;48.982;8.406;2023-04-19T13:38:16;13.40;99.90
4390;DHT22;2209;48.982;8.406;2023-04-19T13:40:38;13.40;99.90
4390;DHT22;2209;48.982;8.406;2023-04-19T13:43:01;13.40;99.90
4390;DHT22;2209;48.982;8.406;2023-04-19T13:45:23;13.40;99.90
4390;DHT22;2209;48.982;8.406;2023-04-19T13:47:45;13.40;99.90
4390;DHT22;2209;48.982;8.406;2023-04-19T13:50:07;13.40;99.90
4390;DHT22;2209;48.982;8.406;2023-04-19T13:52:31;13.40;99.90
4390;DHT22;2209;48.982;8.406;2023-04-19T13:54:53;13.40;99.90
4390;DHT22;2209;48.982;8.406;2023-04-19T13:57:15;13.40;99.90
4390;DHT22;2209;48.982;8.406;2023-04-19T13:59:37;13.40;99.90
4390;DHT22;2209;48.982;8.406;2023-04-19T14:02:01;13.40;99.90
4390;DHT22;2209;48.982;8.406;2023-04-19T14:04:24;13.40;99.90
4390;DHT22;2209;48.982;8.406;2023-04-19T14:06:46;13.40;99.90
4390;DHT22;2209;48.982;8.406;2023-04-19T14:09:10;13.40;99.90
4390;DHT22;2209;48.982;8.406;2023-04-19T14:11:32;13.40;99.90
4390;DHT22;2209;48.982;8.406;2023-04-19T14:13:55;13.40;99.90
4390;DHT22;2209;48.982;8.406;2023-04-19T14:16:17;13.40;99.90
4390;DHT22;2209;48.982;8.406;2023-04-19T14:18:40;13.40;99.90
4390;DHT22;2209;48.982;8.406;2023-04-19T14:21:02;13.40;99.90
4390;DHT22;2209;48.982;8.406;2023-04-19T14:23:25;13.40;99.90
4390;DHT22;2209;48.982;8.406;2023-04-19T14:25:49;13.40;99.90
4390;DHT22;2209;48.982;8.406;2023-04-19T14:28:11;13.40;99.90
4390;DHT22;2209;48.982;8.406;2023-04-19T14:30:34;13.40;99.90
4390;DHT22;2209;48.982;8.406;2023-04-19T14:32:56;13.40;99.90
4390;DHT22;2209;48.982;8.406;2023-04-19T14:35:18;13.40;99.90
4390;DHT22;2209;48.982;8.406;2023-04-19T14:37:40;13.40;99.90
4390;DHT22;2209;48.982;8.406;2023-04-19T14:40:02;13.40;99.90
4390;DHT22;2209;48.982;8.406;2023-04-19T14:42:26;13.40;99.90
4390;DHT22;2209;48.982;8.406;2023-04-19T14:44:49;13.40;99.90
4390;DHT22;2209;48.982;8.406;2023-04-19T14:47:12;13.40;99.90
4390;DHT22;2209;48.982;8.406;2023-04-19T14:49:34;13.40;99.90
4390;DHT22;2209;48.982;8.406;2023-04-19T14:51:56;13.40;99.90
4390;DHT22;2209;48.982;8.406;2023-04-19T14:54:18;13.40;99.90
4390;DHT22;2209;48.982;8.406;2023-04-19T14:56:40;13.40;99.90
4390;DHT22;2209;48.982;8.406;2023-04-19T14:59:05;13.50;99.90
4390;DHT22;2209;48.982;8.406;2023-04-19T15:01:27;13.50;99.90
4390;DHT22;2209;48.982;8.406;2023-04-19T15:03:49;13.50;99.90
4390;DHT22;2209;48.982;8.406;2023-04-19T15:06:11;13.50;99.90
4390;DHT22;2209;48.982;8.406;2023-04-19T15:08:33;13.40;99.90
4390;DHT22;2209;48.982;8.406;2023-04-19T15:10:56;13.50;99.90
4390;DHT22;2209;48.982;8.406;2023-04-19T15:13:18;13.50;99.90
4390;DHT22;2209;48.982;8.406;2023-04-19T15:15:41;13.50;99.90
4390;DHT22;2209;48.982;8.406;2023-04-19T15:18:03;13.50;99.90
4390;DHT22;2209;48.982;8.406;2023-04-19T15:20:25;13.60;99.90
4390;DHT22;2209;48.982;8.406;2023-04-19T15:22:47;13.70;99.90
4390;DHT22;2209;48.982;8.406;2023-04-19T15:25:09;13.70;99.90
4390;DHT22;2209;48.982;8.406;2023-04-19T15:27:31;13.80;99.90
4390;DHT22;2209;48.982;8.406;2023-04-19T15:29:54;13.80;99.90
4390;DHT22;2209;48.982;8.406;2023-04-19T15:32:17;13.80;99.90
4390;DHT22;2209;48.982;8.406;2023-04-19T15:34:39;13.90;99.90
4390;DHT22;2209;48.982;8.406;2023-04-19T15:37:01;13.90;99.90
4390;DHT22;2209;48.982;8.406;2023-04-19T15:39:25;14.00;99.90
4390;DHT22;2209;48.982;8.406;2023-04-19T15:41:47;14.10;99.90
4390;DHT22;2209;48.982;8.406;2023-04-19T15:44:10;14.10;99.90